createdAt,value
2022-08-03T07:54:32.111Z,31.05
2022-08-03T07:57:35.499Z,31.05
2022-08-03T08:00:38.537Z,30.99
2022-08-03T08:03:49.889Z,30.86
2022-08-03T08:06:55.215Z,30.83
2022-08-03T08:09:57.613Z,31.35
2022-08-03T08:13:00.264Z,31.34
2022-08-03T08:16:02.684Z,31.41
2022-08-03T08:19:04.797Z,31.71
2022-08-03T08:22:07.193Z,31.07
2022-08-03T08:25:09.417Z,31.43
2022-08-03T08:28:29.232Z,31.92
2022-08-03T08:31:34.292Z,31.51
2022-08-03T08:34:36.811Z,31.16
2022-08-03T08:37:40.340Z,30.99
2022-08-03T08:40:42.844Z,30.84
2022-08-03T08:43:44.958Z,31.36
2022-08-03T08:46:48.034Z,31.58
2022-08-03T08:50:08.850Z,32.05
2022-08-03T08:53:18.248Z,32.33
2022-08-03T08:56:25.537Z,32.40
2022-08-03T08:59:47.787Z,31.72
2022-08-03T09:02:50.516Z,32.03
2022-08-03T09:05:56.092Z,32.53
2022-08-03T09:08:58.557Z,31.50
2022-08-03T09:12:19.999Z,31.68
2022-08-03T09:15:26.244Z,32.91
2022-08-03T09:18:30.631Z,33.37
2022-08-03T09:21:35.310Z,34.14
2022-08-03T09:24:41.631Z,34.98
2022-08-03T09:27:45.591Z,34.64
2022-08-03T09:30:59.765Z,34.98
2022-08-03T09:34:13.474Z,35.32
2022-08-03T09:37:18.011Z,36.02
2022-08-03T09:40:36.533Z,36.92
2022-08-03T09:43:48.003Z,37.10
2022-08-03T09:46:54.602Z,37.61
2022-08-03T09:50:02.306Z,39.33
2022-08-03T09:53:04.587Z,39.22
2022-08-03T09:56:34.126Z,40.77
2022-08-03T09:59:32.686Z,40.97
2022-08-03T10:02:35.999Z,43.10
2022-08-03T10:05:44.442Z,44.20
2022-08-03T10:08:47.316Z,44.98
2022-08-03T10:11:50.127Z,44.79
2022-08-03T10:14:52.839Z,46.78
2022-08-03T10:17:55.212Z,46.59
2022-08-03T10:21:06.293Z,46.64
2022-08-03T10:24:10.770Z,44.08
2022-08-03T10:27:14.878Z,44.91
2022-08-03T10:30:17.625Z,43.54
2022-08-03T10:33:49.502Z,41.29
2022-08-03T10:36:45.722Z,40.19
2022-08-03T10:39:56.319Z,39.75
2022-08-03T10:43:11.921Z,38.63
2022-08-03T10:46:17.932Z,38.98
2022-08-03T10:49:34.023Z,35.90
2022-08-03T10:53:14.692Z,36.70
2022-08-03T10:57:10.199Z,38.42
2022-08-03T11:00:24.817Z,39.53
2022-08-03T11:03:27.256Z,42.64
2022-08-03T11:06:29.366Z,46.08
